createdAt,value
2022-08-28T00:00:46.836Z,89.90
2022-08-28T00:01:46.800Z,90.10
2022-08-28T00:02:46.866Z,89.74
2022-08-28T00:03:46.786Z,89.90
2022-08-28T00:04:46.944Z,89.70
2022-08-28T00:05:46.816Z,89.70
2022-08-28T00:06:46.765Z,89.29
2022-08-28T00:07:47.955Z,90.10
2022-08-28T00:08:47.750Z,90.70
2022-08-28T00:09:46.734Z,90.30
2022-08-28T00:10:46.755Z,91.15
2022-08-28T00:11:46.736Z,91.01
2022-08-28T00:12:46.710Z,90.85
2022-08-28T00:13:46.703Z,91.46
2022-08-28T00:14:46.712Z,91.31
2022-08-28T00:15:46.761Z,91.01
2022-08-28T00:16:46.682Z,91.11
2022-08-28T00:17:46.680Z,91.11
2022-08-28T00:18:47.102Z,90.70
2022-08-28T00:19:46.659Z,90.30
2022-08-28T00:20:46.676Z,90.00
2022-08-28T00:21:46.646Z,89.50
2022-08-28T00:22:46.640Z,89.29
2022-08-28T00:23:46.627Z,89.29
2022-08-28T00:24:46.623Z,89.29
2022-08-28T00:25:46.641Z,89.59
2022-08-28T00:26:46.619Z,89.59
2022-08-28T00:27:46.598Z,89.39
2022-08-28T00:28:46.589Z,89.19
2022-08-28T00:29:46.580Z,89.39
2022-08-28T00:30:46.606Z,89.39
2022-08-28T00:31:46.618Z,89.19
2022-08-28T00:32:46.557Z,89.70
2022-08-28T00:33:48.199Z,89.25
2022-08-28T00:34:47.543Z,90.30
2022-08-28T00:35:46.559Z,90.50
2022-08-28T00:36:46.534Z,90.91
2022-08-28T00:37:46.531Z,91.11
2022-08-28T00:38:46.515Z,90.81
2022-08-28T00:39:46.517Z,90.50
2022-08-28T00:40:46.556Z,90.20
2022-08-28T00:41:46.492Z,90.70
2022-08-28T00:42:46.484Z,90.00
2022-08-28T00:43:46.474Z,90.10
2022-08-28T00:44:46.475Z,91.21
2022-08-28T00:45:46.491Z,91.51
2022-08-28T00:46:46.511Z,92.42
2022-08-28T00:47:46.447Z,92.02
2022-08-28T00:48:46.438Z,92.12
2022-08-28T00:49:46.429Z,92.77
2022-08-28T00:50:46.420Z,92.52
2022-08-28T00:51:46.439Z,92.52
2022-08-28T00:52:46.403Z,92.42
2022-08-28T00:53:46.400Z,92.42
2022-08-28T00:54:58.936Z,92.72
2022-08-28T00:55:47.375Z,91.91
2022-08-28T00:56:46.394Z,91.71
2022-08-28T00:57:46.366Z,90.04
2022-08-28T00:58:46.355Z,91.05
2022-08-28T00:59:46.345Z,91.25
2022-08-28T01:00:46.340Z,91.61
2022-08-28T01:01:46.554Z,92.42
2022-08-28T01:02:46.394Z,92.52
2022-08-28T01:03:46.316Z,92.66
2022-08-28T01:04:46.308Z,92.46
2022-08-28T01:05:46.301Z,92.46
2022-08-28T01:06:46.318Z,94.32
2022-08-28T01:07:46.282Z,93.57
2022-08-28T01:08:46.280Z,93.82
2022-08-28T01:09:46.275Z,94.12
2022-08-28T01:10:46.261Z,93.88
2022-08-28T01:11:46.278Z,94.48
2022-08-28T01:12:46.249Z,93.57
2022-08-28T01:13:46.238Z,94.08
2022-08-28T01:14:46.229Z,94.08
2022-08-28T01:15:46.248Z,93.57
2022-08-28T01:16:46.240Z,93.27
2022-08-28T01:17:46.207Z,93.77
2022-08-28T01:18:46.194Z,94.23
2022-08-28T01:19:46.190Z,94.18
2022-08-28T01:20:46.182Z,94.08
2022-08-28T01:21:46.198Z,93.88
2022-08-28T01:22:46.168Z,94.08
2022-08-28T01:23:46.155Z,94.38
2022-08-28T01:24:46.154Z,94.18
2022-08-28T01:25:46.132Z,93.77
2022-08-28T01:26:47.164Z,94.08
2022-08-28T01:27:46.121Z,94.24
2022-08-28T01:28:46.116Z,94.28
2022-08-28T01:29:48.012Z,93.07
2022-08-28T01:30:46.153Z,94.28
2022-08-28T01:31:46.124Z,94.73
2022-08-28T01:32:46.085Z,95.03
2022-08-28T01:33:46.078Z,94.93
2022-08-28T01:34:46.072Z,94.57
2022-08-28T01:35:46.063Z,94.67
2022-08-28T01:36:46.090Z,94.93
2022-08-28T01:37:46.047Z,94.73
2022-08-28T01:38:46.036Z,94.23
2022-08-28T01:39:46.034Z,93.52
2022-08-28T01:40:46.022Z,93.52
2022-08-28T01:41:47.038Z,94.23
2022-08-28T01:42:46.012Z,94.23
2022-08-28T01:43:46.002Z,93.72
2022-08-28T01:44:45.994Z,94.43
2022-08-28T01:45:45.988Z,94.02
2022-08-28T01:46:46.111Z,93.92
2022-08-28T01:47:45.972Z,94.23
2022-08-28T01:48:45.967Z,93.41
2022-08-28T01:49:45.981Z,93.41
2022-08-28T01:50:45.946Z,93.41
2022-08-28T01:51:45.971Z,93.32
2022-08-28T01:52:45.934Z,93.21
2022-08-28T01:53:46.632Z,93.21
2022-08-28T01:54:45.921Z,93.88
2022-08-28T01:55:45.910Z,93.62
2022-08-28T01:56:45.931Z,93.27
2022-08-28T01:58:18.401Z,92.91
2022-08-28T01:58:45.891Z,93.27
2022-08-28T01:59:45.882Z,93.48
2022-08-28T02:00:45.869Z,93.07
2022-08-28T02:01:45.955Z,92.77
2022-08-28T02:02:45.860Z,92.66
2022-08-28T02:03:45.944Z,92.91
2022-08-28T02:04:48.158Z,93.62
2022-08-28T02:05:46.840Z,94.23
2022-08-28T02:06:45.870Z,94.73
2022-08-28T02:07:45.823Z,93.41
2022-08-28T02:08:45.805Z,93.62
2022-08-28T02:09:46.816Z,93.88
2022-08-28T02:10:45.801Z,94.02
2022-08-28T02:11:46.812Z,94.12
2022-08-28T02:12:45.790Z,94.02
2022-08-28T02:13:45.778Z,93.82
2022-08-28T02:14:46.785Z,94.23
2022-08-28T02:15:45.906Z,94.43
2022-08-28T02:16:45.793Z,94.32
2022-08-28T02:17:45.747Z,94.48
2022-08-28T02:18:45.740Z,94.02
2022-08-28T02:19:45.737Z,93.48
2022-08-28T02:20:45.719Z,92.86
2022-08-28T02:21:45.731Z,92.77
2022-08-28T02:22:45.736Z,92.57
2022-08-28T02:23:45.710Z,92.52
2022-08-28T02:24:45.696Z,92.66
2022-08-28T02:25:45.692Z,92.36
2022-08-28T02:26:45.680Z,92.91
2022-08-28T02:27:45.703Z,93.57
2022-08-28T02:28:45.665Z,93.62
2022-08-28T02:29:45.663Z,93.48
2022-08-28T02:30:45.690Z,93.07
2022-08-28T02:31:45.654Z,93.12
2022-08-28T02:32:45.664Z,93.12
2022-08-28T02:33:45.629Z,92.36
2022-08-28T02:34:45.623Z,92.71
2022-08-28T02:35:45.609Z,92.06
2022-08-28T02:36:45.607Z,92.16
2022-08-28T02:37:45.638Z,92.57
2022-08-28T02:38:45.593Z,92.62
2022-08-28T02:39:45.585Z,92.42
2022-08-28T02:40:45.579Z,91.31
2022-08-28T02:41:45.568Z,91.71
2022-08-28T02:42:45.583Z,92.52
2022-08-28T02:43:45.568Z,92.12
2022-08-28T02:44:45.544Z,91.71
2022-08-28T02:45:45.569Z,91.61
2022-08-28T02:46:45.534Z,91.51
2022-08-28T02:47:45.549Z,91.01
2022-08-28T02:48:45.510Z,91.01
2022-08-28T02:49:45.505Z,91.21
2022-08-28T02:50:45.495Z,91.35
2022-08-28T02:51:45.494Z,91.86
2022-08-28T02:52:45.518Z,92.36
2022-08-28T02:53:45.477Z,92.46
2022-08-28T02:54:45.474Z,92.26
2022-08-28T02:55:45.460Z,92.46
2022-08-28T02:56:45.491Z,92.57
2022-08-28T02:57:45.464Z,92.66
2022-08-28T02:58:46.442Z,92.66
2022-08-28T02:59:45.432Z,92.06
2022-08-28T03:00:45.421Z,92.36
2022-08-28T03:01:45.458Z,91.71
2022-08-28T03:02:45.603Z,91.05
2022-08-28T03:03:45.396Z,90.34
2022-08-28T03:04:45.388Z,90.70
2022-08-28T03:05:45.387Z,90.20
2022-08-28T03:06:45.374Z,90.61
2022-08-28T03:07:45.396Z,91.51
2022-08-28T03:08:45.358Z,91.71
2022-08-28T03:09:45.345Z,91.82
2022-08-28T03:10:45.346Z,91.71
2022-08-28T03:11:45.333Z,92.42
2022-08-28T03:12:45.353Z,92.62
2022-08-28T03:13:45.316Z,92.93
2022-08-28T03:14:45.309Z,92.42
2022-08-28T03:15:45.311Z,92.62
2022-08-28T03:16:45.327Z,92.42
2022-08-28T03:17:45.312Z,92.32
2022-08-28T03:18:45.296Z,92.52
2022-08-28T03:19:45.282Z,91.87
2022-08-28T03:20:45.264Z,91.51
2022-08-28T03:21:45.258Z,90.91
2022-08-28T03:22:45.276Z,90.61
2022-08-28T03:23:45.245Z,91.06
2022-08-28T03:24:45.241Z,91.31
2022-08-28T03:25:45.235Z,91.01
2022-08-28T03:26:45.223Z,91.11
2022-08-28T03:27:45.252Z,91.51
2022-08-28T03:28:45.208Z,90.70
2022-08-28T03:29:45.203Z,91.01
2022-08-28T03:30:45.270Z,91.21
2022-08-28T03:31:45.178Z,90.81
2022-08-28T03:32:45.173Z,91.31
2022-08-28T03:33:45.190Z,91.01
2022-08-28T03:34:45.152Z,91.01
2022-08-28T03:35:45.151Z,90.00
2022-08-28T03:36:45.138Z,90.00
2022-08-28T03:37:45.162Z,90.66
2022-08-28T03:38:45.128Z,90.70
2022-08-28T03:39:45.126Z,89.70
2022-08-28T03:40:45.112Z,89.50
2022-08-28T03:41:45.103Z,88.68
2022-08-28T03:42:51.312Z,88.39
2022-08-28T03:43:46.095Z,88.04
2022-08-28T03:44:45.085Z,88.59
2022-08-28T03:45:45.125Z,89.39
2022-08-28T03:46:45.072Z,89.19
2022-08-28T03:47:45.079Z,89.09
2022-08-28T03:48:45.093Z,89.19
2022-08-28T03:49:45.042Z,89.19
2022-08-28T03:50:45.036Z,89.39
2022-08-28T03:51:45.025Z,89.19
2022-08-28T03:52:45.052Z,89.50
2022-08-28T03:53:45.018Z,89.59
2022-08-28T03:54:45.013Z,89.50
2022-08-28T03:55:44.991Z,89.84
2022-08-28T03:56:44.990Z,90.04
2022-08-28T03:57:45.005Z,90.04
2022-08-28T03:58:44.978Z,89.74
2022-08-28T03:59:44.963Z,89.74
2022-08-28T04:00:44.958Z,90.14
2022-08-28T04:01:45.004Z,90.75
2022-08-28T04:02:44.979Z,90.85
2022-08-28T04:03:45.000Z,91.39
2022-08-28T04:04:44.929Z,90.99
2022-08-28T04:05:44.917Z,91.05
2022-08-28T04:06:44.911Z,91.50
2022-08-28T04:07:44.935Z,91.09
2022-08-28T04:08:44.902Z,92.10
2022-08-28T04:09:44.883Z,92.10
2022-08-28T04:10:44.881Z,91.39
2022-08-28T04:11:44.869Z,91.39
2022-08-28T04:12:44.894Z,91.30
2022-08-28T04:13:44.851Z,91.44
2022-08-28T04:14:44.849Z,91.30
2022-08-28T04:15:44.838Z,90.94
2022-08-28T04:16:44.877Z,91.14
2022-08-28T04:17:44.866Z,90.12
2022-08-28T04:18:44.830Z,90.12
2022-08-28T04:19:44.815Z,90.12
2022-08-28T04:20:46.421Z,90.19
2022-08-28T04:21:44.806Z,90.03
2022-08-28T04:22:45.255Z,89.62
2022-08-28T04:23:44.782Z,89.42
2022-08-28T04:24:44.775Z,89.42
2022-08-28T04:25:44.764Z,88.92
2022-08-28T04:26:44.757Z,88.61
2022-08-28T04:27:44.779Z,88.71
2022-08-28T04:28:44.743Z,88.51
2022-08-28T04:29:44.737Z,88.21
2022-08-28T04:30:44.729Z,88.31
2022-08-28T04:31:44.746Z,88.31
2022-08-28T04:32:44.741Z,88.31
2022-08-28T04:33:44.707Z,88.10
2022-08-28T04:34:44.689Z,88.31
2022-08-28T04:35:44.691Z,88.51
2022-08-28T04:36:44.681Z,88.31
2022-08-28T04:37:44.674Z,88.71
2022-08-28T04:38:44.687Z,88.41
2022-08-28T04:39:44.657Z,88.31
2022-08-28T04:40:44.654Z,88.51
2022-08-28T04:41:44.635Z,88.21
2022-08-28T04:42:44.645Z,88.31
2022-08-28T04:43:44.649Z,88.31
2022-08-28T04:44:44.633Z,88.31
2022-08-28T04:45:44.678Z,88.10
2022-08-28T04:46:44.604Z,88.41
2022-08-28T04:47:44.593Z,88.01
2022-08-28T04:48:44.616Z,88.10
2022-08-28T04:49:44.585Z,88.41
2022-08-28T04:50:44.572Z,88.31
2022-08-28T04:51:44.565Z,89.01
2022-08-28T04:52:44.556Z,88.31
2022-08-28T04:53:44.576Z,88.61
2022-08-28T04:54:44.547Z,88.10
2022-08-28T04:55:53.919Z,87.90
2022-08-28T04:56:45.544Z,86.73
2022-08-28T04:57:44.518Z,86.59
2022-08-28T04:58:44.548Z,86.49
2022-08-28T04:59:44.502Z,87.13
2022-08-28T05:00:44.548Z,87.44
2022-08-28T05:01:44.499Z,87.30
2022-08-28T05:02:44.480Z,86.90
2022-08-28T05:03:44.497Z,87.34
2022-08-28T05:04:44.467Z,87.50
2022-08-28T05:05:44.462Z,86.79
2022-08-28T05:06:44.452Z,85.99
2022-08-28T05:07:45.012Z,85.58
2022-08-28T05:08:44.466Z,85.78
2022-08-28T05:09:44.431Z,86.04
2022-08-28T05:10:44.426Z,85.44
2022-08-28T05:11:44.415Z,85.14
2022-08-28T05:12:44.402Z,85.03
2022-08-28T05:13:44.426Z,85.38
2022-08-28T05:14:44.395Z,85.58
2022-08-28T05:15:44.385Z,85.17
2022-08-28T05:16:44.461Z,85.28
2022-08-28T05:17:44.373Z,86.39
2022-08-28T05:18:44.386Z,85.68
2022-08-28T05:19:44.358Z,85.08
2022-08-28T05:20:44.338Z,85.38
2022-08-28T05:21:45.340Z,85.24
2022-08-28T05:22:44.338Z,85.08
2022-08-28T05:23:44.354Z,85.14
2022-08-28T05:24:44.321Z,84.03
2022-08-28T05:25:44.316Z,85.10
2022-08-28T05:26:44.303Z,83.58
2022-08-28T05:27:44.311Z,83.78
2022-08-28T05:28:44.312Z,83.74
2022-08-28T05:29:44.277Z,82.59
2022-08-28T05:30:44.266Z,82.84
2022-08-28T05:31:44.304Z,82.93
2022-08-28T05:32:44.257Z,82.84
2022-08-28T05:33:44.275Z,83.38
2022-08-28T05:34:44.236Z,83.88
2022-08-28T05:35:44.229Z,84.19
2022-08-28T05:36:44.217Z,83.34
2022-08-28T05:37:44.213Z,82.73
2022-08-28T05:38:44.233Z,82.37
2022-08-28T05:39:44.216Z,84.33
2022-08-28T05:40:44.224Z,83.36
2022-08-28T05:41:44.202Z,83.82
2022-08-28T05:42:44.174Z,83.62
2022-08-28T05:43:44.201Z,83.62
2022-08-28T05:44:44.156Z,82.31
2022-08-28T05:45:44.222Z,83.12
2022-08-28T05:46:44.166Z,82.84
2022-08-28T05:47:44.138Z,81.87
2022-08-28T05:48:44.126Z,81.76
2022-08-28T05:49:44.434Z,82.37
2022-08-28T05:50:47.275Z,82.57
2022-08-28T05:51:44.103Z,82.37
2022-08-28T05:52:44.102Z,82.27
2022-08-28T05:53:44.087Z,82.03
2022-08-28T05:54:44.431Z,81.82
2022-08-28T05:55:44.073Z,81.42
2022-08-28T05:56:44.075Z,81.62
2022-08-28T05:57:44.058Z,81.87
2022-08-28T05:58:44.056Z,81.62
2022-08-28T05:59:44.072Z,81.93
2022-08-28T06:00:44.040Z,82.13
2022-08-28T06:01:44.113Z,81.52
2022-08-28T06:02:44.026Z,82.03
2022-08-28T06:03:44.047Z,80.98
2022-08-28T06:04:44.035Z,80.98
2022-08-28T06:05:43.999Z,80.54
2022-08-28T06:06:43.999Z,81.89
2022-08-28T06:07:43.983Z,80.44
2022-08-28T06:08:58.392Z,80.13
2022-08-28T06:09:44.999Z,79.33
2022-08-28T06:10:43.965Z,80.54
2022-08-28T06:11:46.124Z,80.18
2022-08-28T06:12:43.953Z,80.44
2022-08-28T06:13:43.950Z,80.24
2022-08-28T06:14:43.967Z,80.72
2022-08-28T06:15:44.028Z,81.22
2022-08-28T06:16:43.924Z,81.73
2022-08-28T06:17:43.919Z,81.93
2022-08-28T06:18:43.918Z,81.79
2022-08-28T06:19:43.928Z,81.82
2022-08-28T06:20:43.892Z,82.33
2022-08-28T06:21:43.889Z,81.59
2022-08-28T06:22:43.875Z,81.18
2022-08-28T06:23:43.873Z,81.28
2022-08-28T06:24:43.895Z,81.18
2022-08-28T06:25:43.873Z,82.13
2022-08-28T06:26:43.849Z,80.68
2022-08-28T06:27:43.839Z,80.78
2022-08-28T06:28:43.843Z,81.28
2022-08-28T06:29:43.846Z,81.35
2022-08-28T06:31:02.714Z,79.97
2022-08-28T06:31:45.843Z,80.68
2022-08-28T06:32:43.803Z,81.32
2022-08-28T06:33:43.791Z,81.18
2022-08-28T06:34:43.826Z,81.48
2022-08-28T06:35:43.787Z,80.58
2022-08-28T06:36:43.770Z,80.07
2022-08-28T06:37:43.761Z,80.27
2022-08-28T06:38:43.762Z,80.18
2022-08-28T06:39:43.773Z,79.87
2022-08-28T06:40:43.740Z,80.11
2022-08-28T06:41:43.732Z,79.77
2022-08-28T06:42:43.743Z,79.21
2022-08-28T06:43:43.717Z,80.85
2022-08-28T06:44:43.744Z,80.45
2022-08-28T06:45:43.718Z,81.26
2022-08-28T06:46:43.700Z,80.21
2022-08-28T06:47:43.701Z,79.91
2022-08-28T06:48:43.678Z,79.91
2022-08-28T06:49:43.701Z,79.71
2022-08-28T06:50:43.666Z,80.05
2022-08-28T06:51:43.660Z,81.10
2022-08-28T06:52:43.645Z,80.59
2022-08-28T06:53:43.646Z,80.99
2022-08-28T06:54:55.371Z,80.49
2022-08-28T06:55:44.627Z,81.30
2022-08-28T06:56:43.625Z,82.10
2022-08-28T06:57:43.616Z,81.87
2022-08-28T06:58:50.150Z,81.05
2022-08-28T06:59:44.626Z,81.32
2022-08-28T07:00:43.593Z,80.92
2022-08-28T07:01:43.642Z,80.51
2022-08-28T07:02:43.601Z,79.61
2022-08-28T07:03:44.369Z,80.25
2022-08-28T07:04:43.588Z,80.31
2022-08-28T07:05:43.551Z,80.55
2022-08-28T07:06:43.547Z,80.85
2022-08-28T07:07:43.545Z,79.85
2022-08-28T07:08:43.533Z,79.64
2022-08-28T07:09:43.562Z,80.69
2022-08-28T07:10:43.526Z,80.65
2022-08-28T07:11:43.516Z,80.59
2022-08-28T07:12:43.497Z,80.76
2022-08-28T07:13:43.503Z,80.76
2022-08-28T07:14:43.527Z,80.41
2022-08-28T07:15:43.522Z,80.25
2022-08-28T07:16:43.471Z,80.55
2022-08-28T07:17:43.475Z,81.30
2022-08-28T07:18:43.466Z,81.56
2022-08-28T07:19:43.456Z,82.17
2022-08-28T07:20:43.467Z,80.21
2022-08-28T07:21:43.539Z,79.57
2022-08-28T07:22:43.417Z,80.21
2022-08-28T07:23:43.419Z,81.02
2022-08-28T07:24:43.414Z,79.91
2022-08-28T07:25:43.435Z,79.81
2022-08-28T07:26:43.400Z,79.61
2022-08-28T07:27:43.397Z,80.25
2022-08-28T07:28:43.386Z,79.34
2022-08-28T07:29:43.400Z,79.61
2022-08-28T07:30:43.469Z,79.54
2022-08-28T07:31:43.359Z,80.05
2022-08-28T07:32:43.354Z,80.15
2022-08-28T07:33:43.345Z,79.34
2022-08-28T07:34:43.386Z,79.10
2022-08-28T07:35:43.334Z,78.70
2022-08-28T07:36:43.329Z,79.41
2022-08-28T07:37:43.308Z,79.44
2022-08-28T07:38:43.322Z,80.08
2022-08-28T07:39:43.326Z,79.74
2022-08-28T07:40:43.284Z,79.54
2022-08-28T07:41:43.329Z,79.34
2022-08-28T07:42:43.267Z,79.54
2022-08-28T07:43:43.260Z,79.85
2022-08-28T07:44:43.278Z,79.04
2022-08-28T07:45:43.306Z,79.48
2022-08-28T07:46:43.242Z,79.79
2022-08-28T07:47:43.237Z,79.74
2022-08-28T07:48:43.224Z,78.74
2022-08-28T07:49:43.245Z,78.59
2022-08-28T07:50:43.227Z,77.99
2022-08-28T07:51:43.259Z,77.93
2022-08-28T07:52:43.232Z,78.33
2022-08-28T07:53:43.196Z,77.79
2022-08-28T07:54:43.203Z,78.30
2022-08-28T07:55:43.172Z,77.89
2022-08-28T07:56:43.161Z,76.48
2022-08-28T07:58:16.048Z,77.89
2022-08-28T07:58:43.144Z,76.98
2022-08-28T07:59:43.171Z,76.98
2022-08-28T08:00:43.148Z,77.55
2022-08-28T08:01:43.203Z,75.74
2022-08-28T08:02:43.128Z,75.30
2022-08-28T08:03:43.215Z,75.90
2022-08-28T08:04:43.135Z,75.70
2022-08-28T08:05:43.094Z,74.19
2022-08-28T08:06:43.082Z,74.15
2022-08-28T08:07:43.907Z,74.15
2022-08-28T08:08:43.069Z,74.02
2022-08-28T08:09:43.096Z,73.65
2022-08-28T08:10:43.056Z,73.35
2022-08-28T08:11:43.048Z,74.15
2022-08-28T08:12:43.034Z,74.19
2022-08-28T08:13:43.031Z,74.99
2022-08-28T08:14:43.052Z,74.99
2022-08-28T08:15:44.000Z,74.19
2022-08-28T08:16:43.006Z,74.69
2022-08-28T08:17:43.003Z,73.14
2022-08-28T08:18:42.990Z,73.55
2022-08-28T08:19:43.030Z,74.82
2022-08-28T08:20:42.977Z,73.32
2022-08-28T08:21:42.968Z,72.88
2022-08-28T08:22:42.962Z,72.81
2022-08-28T08:23:42.964Z,75.29
2022-08-28T08:24:42.978Z,71.53
2022-08-28T08:25:42.932Z,73.35
2022-08-28T08:26:42.929Z,72.84
2022-08-28T08:27:43.235Z,72.03
2022-08-28T08:28:43.951Z,70.89
2022-08-28T08:29:42.904Z,70.79
2022-08-28T08:30:42.947Z,71.67
2022-08-28T08:31:42.891Z,73.11
2022-08-28T08:32:43.022Z,73.92
2022-08-28T08:33:42.877Z,73.82
2022-08-28T08:34:42.866Z,73.05
2022-08-28T08:35:42.883Z,72.85
2022-08-28T08:36:42.848Z,73.14
2022-08-28T08:37:42.841Z,73.52
2022-08-28T08:38:42.832Z,71.70
2022-08-28T08:39:42.823Z,71.64
2022-08-28T08:40:43.742Z,71.91
2022-08-28T08:41:42.810Z,73.65
2022-08-28T08:42:42.806Z,71.80
2022-08-28T08:43:42.798Z,71.87
2022-08-28T08:44:42.792Z,70.46
2022-08-28T08:45:42.802Z,70.12
2022-08-28T08:46:42.845Z,68.31
2022-08-28T08:47:42.767Z,68.82
2022-08-28T08:48:42.759Z,69.76
2022-08-28T08:49:42.755Z,69.49
2022-08-28T08:50:42.791Z,68.18
2022-08-28T08:51:42.739Z,70.09
2022-08-28T08:52:42.739Z,67.88
2022-08-28T08:53:42.753Z,68.62
2022-08-28T08:54:42.739Z,68.51
2022-08-28T08:55:42.737Z,68.91
2022-08-28T08:56:42.713Z,69.29
2022-08-28T08:57:42.691Z,68.98
2022-08-28T08:58:42.701Z,67.88
2022-08-28T08:59:42.678Z,69.09
2022-08-28T09:00:42.691Z,69.29
2022-08-28T09:01:42.697Z,67.98
2022-08-28T09:02:42.794Z,67.07
2022-08-28T09:03:44.266Z,68.35
2022-08-28T09:04:42.635Z,65.64
2022-08-28T09:05:42.650Z,64.93
2022-08-28T09:06:42.617Z,65.77
2022-08-28T09:07:42.624Z,66.27
2022-08-28T09:08:42.605Z,66.47
2022-08-28T09:09:42.605Z,66.80
2022-08-28T09:10:42.628Z,67.64
2022-08-28T09:11:42.583Z,66.47
2022-08-28T09:12:42.581Z,65.03
2022-08-28T09:13:42.564Z,65.47
2022-08-28T09:14:42.561Z,65.03
2022-08-28T09:15:42.776Z,64.56
2022-08-28T09:16:42.546Z,65.80
2022-08-28T09:17:42.627Z,65.97
2022-08-28T09:18:42.528Z,65.30
2022-08-28T09:19:42.554Z,67.55
2022-08-28T09:20:42.515Z,63.87
2022-08-28T09:21:42.507Z,63.70
2022-08-28T09:22:42.500Z,66.37
2022-08-28T09:23:42.489Z,64.43
2022-08-28T09:24:42.512Z,63.53
2022-08-28T09:25:42.475Z,64.46
2022-08-28T09:26:42.463Z,64.36
2022-08-28T09:27:42.567Z,64.46
2022-08-28T09:28:42.450Z,64.63
2022-08-28T09:29:42.442Z,64.00
2022-08-28T09:30:42.530Z,65.10
2022-08-28T09:31:42.435Z,63.36
2022-08-28T09:32:42.567Z,62.93
2022-08-28T09:33:42.411Z,63.09
2022-08-28T09:34:42.425Z,63.29
2022-08-28T09:35:42.431Z,63.82
2022-08-28T09:36:42.403Z,64.43
2022-08-28T09:37:42.390Z,64.63
2022-08-28T09:38:42.379Z,63.02
2022-08-28T09:39:45.590Z,64.83
2022-08-28T09:40:43.423Z,64.23
2022-08-28T09:41:42.361Z,64.30
2022-08-28T09:42:42.409Z,63.90
2022-08-28T09:43:42.339Z,62.96
2022-08-28T09:44:42.371Z,63.19
2022-08-28T09:45:42.349Z,62.89
2022-08-28T09:46:42.360Z,64.34
2022-08-28T09:47:46.782Z,62.60
2022-08-28T09:48:42.303Z,60.84
2022-08-28T09:49:42.311Z,59.58
2022-08-28T09:50:42.311Z,61.10
2022-08-28T09:51:42.278Z,61.46
2022-08-28T09:52:42.324Z,62.43
2022-08-28T09:53:42.261Z,61.02
2022-08-28T09:54:42.255Z,61.02
2022-08-28T09:55:42.277Z,61.13
2022-08-28T09:56:42.239Z,61.43
2022-08-28T09:57:42.236Z,62.77
2022-08-28T09:58:42.228Z,61.30
2022-08-28T09:59:42.223Z,61.50
2022-08-28T10:00:42.263Z,62.00
2022-08-28T10:01:44.835Z,62.70
2022-08-28T10:02:42.203Z,60.33
2022-08-28T10:03:42.212Z,60.27
2022-08-28T10:04:42.224Z,61.22
2022-08-28T10:05:42.199Z,61.86
2022-08-28T10:06:43.699Z,62.02
2022-08-28T10:07:42.159Z,62.86
2022-08-28T10:08:42.143Z,61.22
2022-08-28T10:09:47.872Z,60.42
2022-08-28T10:10:43.150Z,60.02
2022-08-28T10:11:44.387Z,59.66
2022-08-28T10:12:43.119Z,60.97
2022-08-28T10:13:42.104Z,60.44
2022-08-28T10:14:42.101Z,60.14
2022-08-28T10:15:43.560Z,59.46
2022-08-28T10:16:43.085Z,60.22
2022-08-28T10:17:42.088Z,61.27
2022-08-28T10:18:42.071Z,60.27
2022-08-28T10:19:42.067Z,57.63
2022-08-28T10:20:42.087Z,57.46
2022-08-28T10:21:42.048Z,58.56
2022-08-28T10:22:42.054Z,59.23
2022-08-28T10:23:42.122Z,57.73
2022-08-28T10:24:42.031Z,57.53
2022-08-28T10:25:42.042Z,59.06
2022-08-28T10:26:41.997Z,58.96
2022-08-28T10:27:43.017Z,58.76
2022-08-28T10:28:41.996Z,59.26
2022-08-28T10:29:41.992Z,59.36
2022-08-28T10:30:42.033Z,58.73
2022-08-28T10:31:41.980Z,60.71
2022-08-28T10:32:41.979Z,57.37
2022-08-28T10:33:41.953Z,58.61
2022-08-28T10:34:41.963Z,58.66
2022-08-28T10:35:41.976Z,58.86
2022-08-28T10:36:41.936Z,59.56
2022-08-28T10:37:41.927Z,59.50
2022-08-28T10:38:41.921Z,59.85
2022-08-28T10:39:41.928Z,58.25
2022-08-28T10:40:42.148Z,58.58
2022-08-28T10:41:42.519Z,58.11
2022-08-28T10:42:41.907Z,58.53
2022-08-28T10:43:41.952Z,60.01
2022-08-28T10:44:41.880Z,58.81
2022-08-28T10:45:41.883Z,58.91
2022-08-28T10:46:41.911Z,59.48
2022-08-28T10:47:41.850Z,58.05
2022-08-28T10:48:41.919Z,59.02
2022-08-28T10:49:41.853Z,58.68
2022-08-28T10:50:41.859Z,58.98
2022-08-28T10:51:44.276Z,58.07
2022-08-28T10:52:42.813Z,58.58
2022-08-28T10:53:41.799Z,59.18
2022-08-28T10:54:41.793Z,58.11
2022-08-28T10:55:41.818Z,59.33
2022-08-28T10:56:41.785Z,59.53
2022-08-28T10:57:41.777Z,58.70
2022-08-28T10:58:41.879Z,57.53
2022-08-28T10:59:42.387Z,57.70
2022-08-28T11:00:41.785Z,58.81
2022-08-28T11:01:41.890Z,58.63
2022-08-28T11:02:41.781Z,59.03
2022-08-28T11:03:41.730Z,59.53
2022-08-28T11:04:41.723Z,59.11
2022-08-28T11:05:49.432Z,57.87
2022-08-28T11:06:42.704Z,58.85
2022-08-28T11:07:41.702Z,56.65
2022-08-28T11:08:41.687Z,60.35
2022-08-28T11:09:41.690Z,57.37
2022-08-28T11:10:41.711Z,58.45
2022-08-28T11:11:41.668Z,55.22
2022-08-28T11:12:41.661Z,55.77
2022-08-28T11:13:41.649Z,56.90
2022-08-28T11:14:47.717Z,56.80
2022-08-28T11:15:42.662Z,58.00
2022-08-28T11:16:41.676Z,57.50
2022-08-28T11:17:41.626Z,56.70
2022-08-28T11:18:41.621Z,57.48
2022-08-28T11:19:44.505Z,57.15
2022-08-28T11:20:42.629Z,57.68
2022-08-28T11:21:41.611Z,58.11
2022-08-28T11:22:41.610Z,58.78
2022-08-28T11:23:41.580Z,59.00
2022-08-28T11:24:43.811Z,58.23
2022-08-28T11:25:41.588Z,58.33
2022-08-28T11:26:41.562Z,58.50
2022-08-28T11:27:41.555Z,57.90
2022-08-28T11:28:42.199Z,60.05
2022-08-28T11:29:41.531Z,58.59
2022-08-28T11:30:41.685Z,57.95
2022-08-28T11:31:41.518Z,57.78
2022-08-28T11:32:47.228Z,56.57
2022-08-28T11:33:42.501Z,59.38
2022-08-28T11:34:41.491Z,57.68
2022-08-28T11:35:41.523Z,57.37
2022-08-28T11:36:41.481Z,57.68
2022-08-28T11:37:41.473Z,56.95
2022-08-28T11:38:41.466Z,57.05
2022-08-28T11:39:41.454Z,58.12
2022-08-28T11:40:41.520Z,56.96
2022-08-28T11:41:41.466Z,54.97
2022-08-28T11:42:41.450Z,55.07
2022-08-28T11:43:41.423Z,54.99
2022-08-28T11:44:41.424Z,55.42
2022-08-28T11:45:41.476Z,55.52
2022-08-28T11:46:41.463Z,54.92
2022-08-28T11:47:41.396Z,55.44
2022-08-28T11:48:41.382Z,55.85
2022-08-28T11:49:41.379Z,56.77
2022-08-28T11:50:41.380Z,54.94
2022-08-28T11:51:41.391Z,55.32
2022-08-28T11:52:41.380Z,56.39
2022-08-28T11:53:41.365Z,55.22
2022-08-28T11:54:41.350Z,56.72
2022-08-28T11:55:41.336Z,57.09
2022-08-28T11:56:41.357Z,55.77
2022-08-28T11:57:41.322Z,55.66
2022-08-28T11:58:41.316Z,55.79
2022-08-28T11:59:41.305Z,55.29
2022-08-28T12:00:41.315Z,55.49
2022-08-28T12:01:41.322Z,55.29
2022-08-28T12:02:41.352Z,54.86
2022-08-28T12:03:41.273Z,56.44
2022-08-28T12:04:41.314Z,57.31
2022-08-28T12:05:41.270Z,55.21
2022-08-28T12:06:41.272Z,54.46
2022-08-28T12:07:41.244Z,54.34
2022-08-28T12:08:41.238Z,53.14
2022-08-28T12:09:41.335Z,53.02
2022-08-28T12:10:41.218Z,52.92
2022-08-28T12:11:41.300Z,52.64
2022-08-28T12:12:41.207Z,53.06
2022-08-28T12:13:41.199Z,53.42
2022-08-28T12:14:41.783Z,53.42
2022-08-28T12:15:41.243Z,53.07
2022-08-28T12:16:41.203Z,53.69
2022-08-28T12:17:41.164Z,55.40
2022-08-28T12:18:41.159Z,53.44
2022-08-28T12:19:52.095Z,54.04
2022-08-28T12:20:42.146Z,53.52
2022-08-28T12:21:41.159Z,54.32
2022-08-28T12:22:41.124Z,53.31
2022-08-28T12:23:41.133Z,55.02
2022-08-28T12:24:41.121Z,53.52
2022-08-28T12:25:41.101Z,54.84
2022-08-28T12:26:41.123Z,54.47
2022-08-28T12:27:41.088Z,53.89
2022-08-28T12:28:41.085Z,54.67
2022-08-28T12:29:41.074Z,53.94
2022-08-28T12:30:41.147Z,55.27
2022-08-28T12:31:41.088Z,54.17
2022-08-28T12:32:41.055Z,53.47
2022-08-28T12:33:41.049Z,53.64
2022-08-28T12:34:41.776Z,54.84
2022-08-28T12:35:43.674Z,54.61
2022-08-28T12:36:41.071Z,54.84
2022-08-28T12:37:52.480Z,53.92
2022-08-28T12:38:41.997Z,53.54
2022-08-28T12:39:42.003Z,53.81
2022-08-28T12:40:41.065Z,54.74
2022-08-28T12:41:41.014Z,53.24
2022-08-28T12:42:40.977Z,54.64
2022-08-28T12:43:46.400Z,53.47
2022-08-28T12:44:42.774Z,55.07
2022-08-28T12:45:40.994Z,53.47
2022-08-28T12:46:40.975Z,53.97
2022-08-28T12:47:40.974Z,53.74
2022-08-28T12:48:40.941Z,55.74
2022-08-28T12:49:40.931Z,54.71
2022-08-28T12:50:40.926Z,53.31
2022-08-28T12:51:40.935Z,53.69
2022-08-28T12:52:40.904Z,53.66